createdAt,value
2022-08-28T00:02:26.295Z,19.20
2022-08-28T00:04:56.206Z,19.93
2022-08-28T00:07:25.498Z,19.80
2022-08-28T00:09:54.379Z,19.50
2022-08-28T00:12:22.855Z,19.70
2022-08-28T00:14:51.470Z,20.27
2022-08-28T00:17:20.065Z,18.70
2022-08-28T00:19:48.607Z,20.93
2022-08-28T00:22:18.576Z,19.50
2022-08-28T00:24:48.220Z,19.87
2022-08-28T00:27:34.026Z,19.10
2022-08-28T00:30:02.914Z,19.17
2022-08-28T00:32:31.461Z,17.80
2022-08-28T00:35:02.005Z,17.57
2022-08-28T00:37:32.276Z,17.47
2022-08-28T00:40:00.888Z,18.83
2022-08-28T00:42:30.974Z,19.50
2022-08-28T00:44:59.445Z,23.37
2022-08-28T00:47:28.406Z,20.37
2022-08-28T00:49:57.599Z,20.13
2022-08-28T00:52:27.431Z,21.37
2022-08-28T00:55:00.156Z,20.27
2022-08-28T00:57:31.947Z,20.27
2022-08-28T01:00:00.519Z,20.23
2022-08-28T01:02:29.264Z,21.13
2022-08-28T01:04:58.165Z,20.23
2022-08-28T01:07:27.039Z,20.13
2022-08-28T01:09:58.528Z,21.33
2022-08-28T01:12:30.689Z,20.67
2022-08-28T01:15:02.530Z,20.33
2022-08-28T01:17:36.719Z,20.77
2022-08-28T01:20:13.010Z,21.53
2022-08-28T01:22:46.036Z,22.87
2022-08-28T01:25:20.656Z,21.63
2022-08-28T01:27:49.272Z,22.10
2022-08-28T01:30:20.516Z,22.83
2022-08-28T01:32:52.405Z,20.67
2022-08-28T01:35:25.840Z,20.87
2022-08-28T01:37:55.898Z,19.43
2022-08-28T01:40:30.178Z,21.40
2022-08-28T01:43:08.797Z,21.07
2022-08-28T01:45:38.167Z,21.47
2022-08-28T01:48:07.866Z,21.80
2022-08-28T01:50:36.514Z,22.97
2022-08-28T01:53:06.419Z,22.20
2022-08-28T01:55:42.935Z,24.57
2022-08-28T01:58:12.841Z,22.83
2022-08-28T02:00:42.096Z,22.50
2022-08-28T02:03:12.920Z,22.63
2022-08-28T02:05:41.581Z,22.47
2022-08-28T02:08:10.592Z,20.63
2022-08-28T02:10:42.337Z,20.83
2022-08-28T02:13:11.818Z,23.10
2022-08-28T02:15:42.385Z,21.70
2022-08-28T02:18:11.909Z,23.83
2022-08-28T02:20:42.362Z,24.17
2022-08-28T02:23:11.118Z,23.13
2022-08-28T02:25:42.044Z,24.07
2022-08-28T02:28:11.319Z,22.70
2022-08-28T02:30:40.646Z,22.07
2022-08-28T02:33:09.323Z,22.13
2022-08-28T02:35:38.817Z,25.17
2022-08-28T02:38:07.689Z,23.50
2022-08-28T02:40:37.331Z,25.57
2022-08-28T02:43:08.173Z,23.83
2022-08-28T02:45:36.844Z,26.23
2022-08-28T02:48:15.650Z,24.53
2022-08-28T02:50:46.345Z,23.00
2022-08-28T02:53:15.536Z,24.80
2022-08-28T02:55:44.312Z,25.13
2022-08-28T02:58:14.435Z,23.33
2022-08-28T03:00:46.769Z,25.33
2022-08-28T03:03:15.792Z,21.73
2022-08-28T03:05:44.943Z,23.77
2022-08-28T03:08:13.915Z,24.13
2022-08-28T03:10:42.623Z,23.23
2022-08-28T03:13:11.802Z,23.93
2022-08-28T03:15:57.375Z,23.73
2022-08-28T03:18:27.314Z,24.37
2022-08-28T03:20:56.725Z,23.87
2022-08-28T03:23:28.341Z,23.00
2022-08-28T03:25:59.766Z,24.27
2022-08-28T03:28:32.202Z,24.87
2022-08-28T03:31:03.923Z,26.50
2022-08-28T03:33:33.870Z,24.87
2022-08-28T03:36:04.760Z,24.83
2022-08-28T03:38:33.971Z,26.17
2022-08-28T03:41:02.598Z,26.50
2022-08-28T03:43:31.591Z,25.10
2022-08-28T03:46:02.466Z,27.53
2022-08-28T03:48:34.288Z,28.07
2022-08-28T03:51:03.609Z,27.80
2022-08-28T03:53:33.322Z,25.33
2022-08-28T03:56:02.040Z,25.67
2022-08-28T03:58:31.190Z,26.50
2022-08-28T04:00:59.804Z,26.00
2022-08-28T04:03:28.485Z,33.10
2022-08-28T04:05:58.744Z,26.73
2022-08-28T04:08:27.855Z,25.60
2022-08-28T04:10:56.666Z,29.07
2022-08-28T04:13:25.281Z,28.50
2022-08-28T04:16:01.445Z,24.77
2022-08-28T04:18:32.299Z,30.00
2022-08-28T04:21:04.097Z,27.23
2022-08-28T04:23:32.986Z,27.20
2022-08-28T04:26:01.559Z,29.70
2022-08-28T04:28:32.691Z,30.10
2022-08-28T04:31:01.317Z,34.93
2022-08-28T04:33:31.471Z,35.53
2022-08-28T04:36:06.408Z,29.00
2022-08-28T04:38:35.259Z,27.60
2022-08-28T04:41:05.958Z,26.70
2022-08-28T04:43:35.076Z,30.73
2022-08-28T04:46:07.259Z,25.53
2022-08-28T04:48:35.906Z,32.00
2022-08-28T04:51:07.107Z,27.87
2022-08-28T04:53:36.609Z,27.10
2022-08-28T04:56:07.363Z,32.27
2022-08-28T04:58:36.218Z,34.03
2022-08-28T05:01:09.338Z,38.93
2022-08-28T05:03:37.951Z,31.23
2022-08-28T05:06:08.996Z,31.60
2022-08-28T05:08:37.700Z,32.87
2022-08-28T05:11:14.885Z,32.20
2022-08-28T05:14:04.420Z,30.77
2022-08-28T05:16:34.708Z,26.90
2022-08-28T05:19:04.748Z,28.30
2022-08-28T05:21:34.699Z,25.70
2022-08-28T05:24:04.308Z,28.40
2022-08-28T05:26:33.991Z,26.67
2022-08-28T05:29:03.673Z,24.50
2022-08-28T05:31:34.011Z,24.00
2022-08-28T05:34:04.591Z,26.67
2022-08-28T05:36:39.391Z,22.70
2022-08-28T05:39:10.367Z,22.33
2022-08-28T05:41:41.947Z,21.37
2022-08-28T05:44:12.845Z,20.40
2022-08-28T05:46:43.669Z,20.80
2022-08-28T05:49:12.661Z,20.57
2022-08-28T05:51:44.511Z,20.60
2022-08-28T05:54:15.263Z,21.30
2022-08-28T05:56:45.990Z,20.57
2022-08-28T05:59:16.096Z,19.73
2022-08-28T06:01:46.722Z,19.40
2022-08-28T06:04:18.003Z,19.17
2022-08-28T06:06:49.675Z,19.47
2022-08-28T06:09:22.455Z,18.50
2022-08-28T06:11:55.715Z,19.63
2022-08-28T06:14:25.896Z,18.73
2022-08-28T06:16:56.376Z,17.97
2022-08-28T06:19:27.056Z,18.50
2022-08-28T06:21:59.422Z,19.27
2022-08-28T06:24:29.603Z,17.90
2022-08-28T06:26:59.749Z,18.73
2022-08-28T06:29:30.047Z,18.80
2022-08-28T06:32:01.479Z,18.60
2022-08-28T06:34:30.636Z,18.00
2022-08-28T06:37:00.798Z,19.00
2022-08-28T06:39:29.399Z,19.07
2022-08-28T06:41:58.523Z,19.13
2022-08-28T06:44:28.228Z,23.53
2022-08-28T06:46:58.012Z,18.88
2022-08-28T06:49:26.531Z,18.80
2022-08-28T06:51:56.329Z,19.13
2022-08-28T06:54:26.337Z,15.27
2022-08-28T06:56:55.122Z,16.25
2022-08-28T06:59:23.571Z,17.17
2022-08-28T07:01:54.621Z,14.18
2022-08-28T07:04:23.333Z,17.30
2022-08-28T07:06:54.643Z,15.52
2022-08-28T07:09:25.372Z,17.33
2022-08-28T07:11:54.178Z,18.05
2022-08-28T07:14:23.372Z,16.02
2022-08-28T07:16:54.859Z,14.88
2022-08-28T07:19:23.403Z,17.33
2022-08-28T07:21:52.103Z,15.52
2022-08-28T07:24:20.857Z,15.75
2022-08-28T07:26:50.963Z,13.30
2022-08-28T07:29:20.510Z,13.15
2022-08-28T07:31:51.672Z,15.65
2022-08-28T07:34:22.358Z,15.50
2022-08-28T07:36:58.210Z,14.07
2022-08-28T07:39:26.683Z,13.57
2022-08-28T07:41:56.702Z,13.05
2022-08-28T07:44:43.132Z,13.07
2022-08-28T07:47:12.814Z,14.35
2022-08-28T07:49:42.280Z,12.35
2022-08-28T07:52:11.809Z,12.63
2022-08-28T07:54:41.569Z,11.32
2022-08-28T07:57:11.721Z,8.48
2022-08-28T07:59:40.924Z,10.10
2022-08-28T08:02:11.678Z,10.38
2022-08-28T08:04:40.711Z,10.43
2022-08-28T08:07:09.670Z,11.85
2022-08-28T08:09:41.526Z,9.95
2022-08-28T08:12:12.665Z,12.05
2022-08-28T08:14:43.138Z,11.60
2022-08-28T08:17:12.159Z,10.73
2022-08-28T08:19:41.149Z,12.05
2022-08-28T08:22:09.779Z,12.88
2022-08-28T08:24:38.532Z,11.55
2022-08-28T08:27:07.769Z,12.90
2022-08-28T08:29:39.896Z,9.73
2022-08-28T08:32:10.938Z,9.38
2022-08-28T08:34:41.832Z,8.70
2022-08-28T08:37:10.586Z,11.10
2022-08-28T08:39:39.340Z,10.98
2022-08-28T08:42:12.040Z,11.60
2022-08-28T08:44:44.980Z,10.10
2022-08-28T08:47:18.569Z,8.43
2022-08-28T08:49:53.205Z,12.93
2022-08-28T08:52:45.492Z,10.65
2022-08-28T08:55:25.918Z,10.13
2022-08-28T08:58:00.753Z,10.50
2022-08-28T09:00:32.650Z,13.50
2022-08-28T09:03:07.365Z,9.75
2022-08-28T09:05:47.130Z,10.88
2022-08-28T09:08:26.850Z,8.15
2022-08-28T09:11:02.831Z,8.75
2022-08-28T09:13:41.678Z,10.07
2022-08-28T09:16:29.310Z,10.43
2022-08-28T09:18:59.573Z,10.63
2022-08-28T09:21:32.403Z,7.68
2022-08-28T09:24:05.776Z,8.82
2022-08-28T09:26:34.937Z,5.85
2022-08-28T09:29:07.017Z,8.38
2022-08-28T09:31:42.462Z,7.95
2022-08-28T09:34:24.114Z,7.28
2022-08-28T09:36:53.877Z,7.53
2022-08-28T09:39:24.828Z,7.18
2022-08-28T09:42:23.143Z,7.07
2022-08-28T09:45:02.547Z,6.07
2022-08-28T09:47:47.306Z,7.63
2022-08-28T09:50:24.206Z,6.43
2022-08-28T09:52:56.024Z,6.75
2022-08-28T09:55:32.198Z,6.43
2022-08-28T09:58:02.113Z,7.82
2022-08-28T10:00:34.938Z,6.88
2022-08-28T10:03:15.103Z,6.78
2022-08-28T10:05:50.017Z,6.80
2022-08-28T10:08:32.052Z,6.88
2022-08-28T10:11:08.453Z,6.80
2022-08-28T10:13:45.013Z,6.75
2022-08-28T10:16:28.910Z,8.88
2022-08-28T10:19:06.955Z,6.18
2022-08-28T10:21:44.671Z,7.70
2022-08-28T10:24:32.508Z,8.18
2022-08-28T10:27:14.378Z,9.57
2022-08-28T10:29:53.148Z,7.25
2022-08-28T10:32:43.928Z,6.53
2022-08-28T10:35:19.479Z,6.00
2022-08-28T10:38:00.076Z,7.30
2022-08-28T10:40:34.709Z,6.07
2022-08-28T10:43:08.994Z,7.00
2022-08-28T10:45:40.377Z,6.45
2022-08-28T10:48:12.481Z,6.28
2022-08-28T10:50:47.210Z,7.38
2022-08-28T10:53:20.566Z,7.68
2022-08-28T10:55:56.735Z,6.22
2022-08-28T10:58:28.032Z,6.60
2022-08-28T11:01:01.448Z,6.97
2022-08-28T11:03:35.548Z,6.10
2022-08-28T11:06:11.720Z,8.90
2022-08-28T11:08:41.926Z,6.13
2022-08-28T11:11:16.149Z,6.30
2022-08-28T11:13:54.962Z,6.28
2022-08-28T11:16:27.693Z,5.55
2022-08-28T11:19:31.713Z,6.05
2022-08-28T11:22:09.824Z,7.88
2022-08-28T11:24:48.300Z,5.60
2022-08-28T11:27:27.058Z,5.90
2022-08-28T11:30:06.598Z,6.22
2022-08-28T11:32:56.203Z,5.97
2022-08-28T11:35:50.876Z,5.75
2022-08-28T11:39:11.546Z,6.10
2022-08-28T11:42:15.923Z,5.90
2022-08-28T11:44:46.050Z,4.90
2022-08-28T11:47:46.346Z,5.20
2022-08-28T11:50:22.815Z,7.57
2022-08-28T11:53:17.086Z,5.85
2022-08-28T11:56:03.320Z,4.60
2022-08-28T11:58:40.340Z,4.72
2022-08-28T12:01:11.083Z,5.10
2022-08-28T12:03:43.558Z,4.65
2022-08-28T12:06:13.459Z,4.97
2022-08-28T12:09:12.521Z,4.07
2022-08-28T12:11:59.184Z,4.45
2022-08-28T12:15:07.987Z,4.90
2022-08-28T12:17:52.549Z,4.85
2022-08-28T12:20:35.122Z,4.10
2022-08-28T12:23:39.306Z,5.22
2022-08-28T12:26:10.908Z,4.70
2022-08-28T12:28:46.624Z,4.75
2022-08-28T12:32:03.618Z,5.15
2022-08-28T12:34:41.395Z,8.10
2022-08-28T12:37:29.505Z,4.80
2022-08-28T12:40:05.470Z,5.10
2022-08-28T12:42:39.413Z,4.90
2022-08-28T12:45:11.174Z,5.43
2022-08-28T12:47:44.125Z,4.90
2022-08-28T12:50:23.498Z,4.85
2022-08-28T12:52:54.184Z,4.88
2022-08-28T12:55:25.407Z,5.28
2022-08-28T12:57:55.042Z,5.28
2022-08-28T13:00:26.063Z,4.97
2022-08-28T13:02:56.932Z,4.35
2022-08-28T13:05:33.555Z,5.30
2022-08-28T13:08:05.670Z,4.22
2022-08-28T13:10:39.175Z,4.00
2022-08-28T13:13:11.087Z,5.00
2022-08-28T13:16:00.944Z,5.80
2022-08-28T13:18:51.508Z,4.25
2022-08-28T13:21:37.357Z,5.80
2022-08-28T13:24:26.565Z,6.95
2022-08-28T13:27:06.277Z,4.18
2022-08-28T13:29:35.710Z,4.18
2022-08-28T13:32:06.987Z,4.88
2022-08-28T13:34:37.997Z,6.55
2022-08-28T13:37:20.373Z,4.85
2022-08-28T13:39:49.412Z,5.65
2022-08-28T13:42:19.424Z,5.32
2022-08-28T13:44:50.819Z,4.25
2022-08-28T13:47:19.461Z,4.03
2022-08-28T13:49:48.088Z,4.30
2022-08-28T13:52:16.727Z,4.20
2022-08-28T13:54:45.658Z,4.63
2022-08-28T13:57:14.712Z,3.72
2022-08-28T13:59:44.865Z,3.42
2022-08-28T14:02:33.557Z,4.53
2022-08-28T14:05:02.201Z,5.53
2022-08-28T14:07:30.680Z,3.40
2022-08-28T14:09:59.689Z,5.50
2022-08-28T14:12:32.809Z,3.70
2022-08-28T14:15:04.150Z,4.55
2022-08-28T14:17:32.800Z,3.72
2022-08-28T14:20:01.871Z,3.85
2022-08-28T14:22:31.081Z,3.85
2022-08-28T14:24:59.549Z,3.67
2022-08-28T14:27:28.107Z,4.38
2022-08-28T14:29:56.789Z,3.70
2022-08-28T14:32:26.763Z,4.35
2022-08-28T14:34:55.700Z,3.95
2022-08-28T14:37:24.729Z,3.60
2022-08-28T14:39:53.371Z,3.53
2022-08-28T14:42:22.018Z,4.80
2022-08-28T14:44:50.746Z,4.13
2022-08-28T14:47:19.338Z,3.67
2022-08-28T14:49:49.286Z,3.00
2022-08-28T14:52:19.485Z,3.50
2022-08-28T14:54:48.493Z,4.43
2022-08-28T14:57:17.109Z,3.67
2022-08-28T14:59:46.023Z,4.18
2022-08-28T15:02:14.768Z,4.40
2022-08-28T15:04:43.842Z,6.65
2022-08-28T15:07:13.964Z,3.70
2022-08-28T15:09:44.096Z,5.45
2022-08-28T15:12:12.737Z,4.40
2022-08-28T15:14:41.473Z,4.38
2022-08-28T15:17:34.010Z,4.20
2022-08-28T15:20:04.457Z,4.97
2022-08-28T15:22:34.645Z,4.45
2022-08-28T15:25:03.508Z,4.47
2022-08-28T15:27:32.058Z,3.90
2022-08-28T15:30:00.841Z,4.07
2022-08-28T15:32:29.595Z,4.05
2022-08-28T15:34:58.048Z,4.07
2022-08-28T15:37:29.408Z,4.10
2022-08-28T15:40:19.530Z,3.80
2022-08-28T15:42:48.718Z,3.80
2022-08-28T15:45:17.480Z,4.88
2022-08-28T15:47:46.031Z,3.63
2022-08-28T15:50:17.243Z,3.80
2022-08-28T15:52:48.575Z,4.32
2022-08-28T15:55:18.763Z,4.47
2022-08-28T15:57:47.334Z,3.58
2022-08-28T16:00:16.771Z,3.83
2022-08-28T16:02:45.487Z,4.13
2022-08-28T16:05:14.530Z,3.95
2022-08-28T16:07:43.048Z,4.22
2022-08-28T16:10:13.524Z,3.58
2022-08-28T16:12:43.463Z,4.20
2022-08-28T16:15:21.096Z,5.00
2022-08-28T16:17:50.092Z,3.47
2022-08-28T16:20:21.748Z,3.65
2022-08-28T16:22:51.809Z,4.00
2022-08-28T16:25:20.671Z,5.72
2022-08-28T16:27:50.577Z,3.85
2022-08-28T16:30:20.585Z,5.07
2022-08-28T16:32:54.180Z,5.18
2022-08-28T16:35:24.039Z,3.85
2022-08-28T16:37:52.532Z,4.80
2022-08-28T16:40:21.631Z,3.72
2022-08-28T16:42:52.295Z,3.90
2022-08-28T16:45:21.562Z,4.72
2022-08-28T16:47:50.734Z,4.32
2022-08-28T16:50:19.854Z,7.55
2022-08-28T16:52:48.492Z,4.10
2022-08-28T16:55:17.240Z,4.93
2022-08-28T16:57:46.297Z,3.72
2022-08-28T17:00:16.879Z,4.10
2022-08-28T17:02:46.893Z,3.78
2022-08-28T17:05:16.553Z,3.85
2022-08-28T17:07:45.966Z,4.45
2022-08-28T17:10:18.008Z,5.00
2022-08-28T17:12:46.618Z,5.07
2022-08-28T17:15:17.012Z,5.50
2022-08-28T17:17:49.350Z,4.45
2022-08-28T17:20:35.660Z,4.68
2022-08-28T17:23:06.412Z,4.70
2022-08-28T17:25:34.975Z,5.03
2022-08-28T17:28:03.820Z,4.82
2022-08-28T17:30:33.757Z,5.00
2022-08-28T17:33:02.307Z,4.53
2022-08-28T17:35:31.275Z,4.70
2022-08-28T17:38:09.372Z,5.22
2022-08-28T17:40:38.126Z,6.38
2022-08-28T17:43:08.602Z,5.72
2022-08-28T17:45:39.826Z,6.18
2022-08-28T17:48:09.146Z,5.57
2022-08-28T17:50:38.765Z,6.40
2022-08-28T17:53:08.315Z,6.80
2022-08-28T17:55:37.075Z,6.30
2022-08-28T17:58:06.787Z,7.82
2022-08-28T18:00:36.790Z,5.90
2022-08-28T18:03:08.652Z,7.57
2022-08-28T18:05:38.159Z,6.97
2022-08-28T18:08:06.793Z,6.88
2022-08-28T18:10:36.147Z,6.72
2022-08-28T18:13:05.471Z,6.25
2022-08-28T18:15:34.317Z,6.53
2022-08-28T18:18:06.933Z,6.43
2022-08-28T18:20:35.713Z,6.80
2022-08-28T18:23:05.021Z,6.45
2022-08-28T18:25:50.316Z,6.68
2022-08-28T18:28:22.412Z,6.35
2022-08-28T18:31:00.072Z,5.93
2022-08-28T18:33:30.254Z,6.65
2022-08-28T18:35:59.535Z,6.10
2022-08-28T18:38:30.119Z,6.78
2022-08-28T18:40:59.831Z,6.78
2022-08-28T18:43:28.761Z,7.50
2022-08-28T18:45:57.702Z,6.50
2022-08-28T18:48:26.356Z,8.15
2022-08-28T18:50:56.478Z,6.90
2022-08-28T18:53:25.510Z,6.90
2022-08-28T18:55:55.195Z,6.43
2022-08-28T18:58:24.343Z,6.10
2022-08-28T19:00:54.167Z,7.78
2022-08-28T19:03:24.046Z,6.10
2022-08-28T19:05:55.368Z,6.20
2022-08-28T19:08:25.861Z,5.70
2022-08-28T19:10:55.365Z,5.93
2022-08-28T19:13:24.040Z,5.60
2022-08-28T19:15:54.946Z,6.50
2022-08-28T19:18:24.283Z,5.90
2022-08-28T19:20:53.075Z,5.90
2022-08-28T19:23:21.781Z,6.10
2022-08-28T19:25:51.892Z,6.20
2022-08-28T19:28:20.686Z,7.60
2022-08-28T19:30:49.761Z,7.97
2022-08-28T19:33:18.416Z,6.05
2022-08-28T19:35:47.292Z,6.10
2022-08-28T19:38:16.095Z,5.82
2022-08-28T19:40:45.647Z,5.93
2022-08-28T19:43:18.842Z,7.07
2022-08-28T19:45:47.732Z,6.18
2022-08-28T19:48:16.896Z,5.72
2022-08-28T19:50:47.118Z,6.47
2022-08-28T19:53:17.353Z,6.00
2022-08-28T19:55:46.683Z,6.20
2022-08-28T19:58:16.903Z,6.03
2022-08-28T20:00:47.646Z,6.30
2022-08-28T20:03:16.438Z,5.97
2022-08-28T20:05:49.025Z,6.50
2022-08-28T20:08:18.371Z,6.43
2022-08-28T20:10:47.284Z,7.45
2022-08-28T20:13:16.310Z,6.15
2022-08-28T20:15:49.076Z,7.35
2022-08-28T20:18:18.243Z,6.90
2022-08-28T20:20:47.562Z,6.43
2022-08-28T20:23:17.207Z,7.72
2022-08-28T20:25:49.338Z,7.32
2022-08-28T20:28:19.144Z,6.53
2022-08-28T20:30:49.597Z,6.60
2022-08-28T20:33:18.372Z,6.30
2022-08-28T20:35:47.960Z,7.10
2022-08-28T20:38:17.309Z,6.80
2022-08-28T20:40:47.077Z,6.85
2022-08-28T20:43:16.186Z,6.70
2022-08-28T20:45:45.704Z,7.15
2022-08-28T20:48:16.218Z,7.03
2022-08-28T20:50:48.140Z,6.80
2022-08-28T20:53:23.294Z,6.80
2022-08-28T20:56:09.555Z,6.47
2022-08-28T20:58:39.574Z,6.55
2022-08-28T21:01:08.958Z,6.85
2022-08-28T21:03:41.112Z,7.55
2022-08-28T21:06:12.110Z,6.55
2022-08-28T21:08:42.738Z,6.35
2022-08-28T21:11:13.151Z,6.68
2022-08-28T21:13:43.106Z,8.68
2022-08-28T21:16:13.014Z,6.55
2022-08-28T21:19:13.937Z,7.32
2022-08-28T21:21:36.187Z,6.93
2022-08-28T21:24:06.689Z,6.90
2022-08-28T21:26:37.659Z,7.30
2022-08-28T21:29:06.960Z,7.85
2022-08-28T21:31:36.406Z,7.95
2022-08-28T21:34:07.012Z,8.18
2022-08-28T21:36:36.631Z,7.28
2022-08-28T21:39:07.028Z,7.87
2022-08-28T21:41:37.055Z,7.40
2022-08-28T21:44:06.936Z,10.15
2022-08-28T21:46:36.846Z,7.50
2022-08-28T21:49:08.164Z,7.35
2022-08-28T21:51:37.323Z,7.57
2022-08-28T21:54:06.643Z,7.22
2022-08-28T21:56:36.086Z,7.40
2022-08-28T21:59:05.478Z,6.93
2022-08-28T22:01:35.722Z,7.70
2022-08-28T22:04:07.499Z,8.57
2022-08-28T22:06:36.661Z,7.93
2022-08-28T22:09:06.974Z,8.02
2022-08-28T22:11:36.533Z,7.37
2022-08-28T22:14:05.179Z,7.53
2022-08-28T22:16:33.723Z,7.43
2022-08-28T22:19:03.884Z,9.63
2022-08-28T22:21:51.702Z,8.33
2022-08-28T22:24:20.228Z,8.77
2022-08-28T22:26:50.294Z,8.60
2022-08-28T22:29:26.507Z,8.50
2022-08-28T22:31:54.976Z,10.30
2022-08-28T22:34:23.397Z,8.00
2022-08-28T22:36:53.252Z,10.40
2022-08-28T22:39:21.793Z,8.70
2022-08-28T22:41:50.280Z,8.87
2022-08-28T22:44:18.867Z,8.57
2022-08-28T22:46:47.317Z,9.43
2022-08-28T22:49:16.465Z,8.33
2022-08-28T22:51:44.954Z,9.03
2022-08-28T22:54:14.846Z,8.50
2022-08-28T22:56:43.485Z,8.40
2022-08-28T22:59:12.542Z,8.57
2022-08-28T23:01:42.949Z,8.93
2022-08-28T23:04:12.331Z,8.27
2022-08-28T23:06:41.093Z,9.23
2022-08-28T23:09:10.405Z,9.30
2022-08-28T23:11:40.406Z,11.50
2022-08-28T23:14:09.154Z,8.70
2022-08-28T23:16:37.774Z,9.40
2022-08-28T23:19:08.933Z,9.13
2022-08-28T23:21:40.861Z,9.50
2022-08-28T23:24:12.974Z,9.00
2022-08-28T23:26:43.377Z,9.10
2022-08-28T23:29:12.723Z,8.27
2022-08-28T23:31:41.557Z,8.63
2022-08-28T23:34:10.233Z,9.40
2022-08-28T23:36:39.636Z,10.60
2022-08-28T23:39:12.204Z,9.80
2022-08-28T23:41:42.294Z,9.53
2022-08-28T23:44:10.944Z,9.77
2022-08-28T23:46:41.644Z,9.73
2022-08-28T23:49:11.835Z,9.87
2022-08-28T23:51:42.017Z,9.00
2022-08-28T23:54:12.219Z,9.17
2022-08-28T23:56:42.204Z,11.60
2022-08-28T23:59:12.136Z,9.40
